Time;durP1;ratioP1;P1;durP2;ratioP2;P2;SDS_P1;SDS_P2;PMS_P1;PMS_P2;Temp;Humidity;BMP_temperature;BMP_pressure;BME280_temperature;BME280_humidity;BME280_pressure;Samples;Min_cycle;Max_cycle;Signal;HPM_P1;HPM_P2
2022/04/17 00:01:58;;;;;;;1.80;1.20;;;6.00;55.00;;;;;;5040970;28;20048;-74
2022/04/17 00:04:23;;;;;;;1.33;1.23;;;6.00;55.20;;;;;;5062488;28;20040;-74
2022/04/17 00:06:49;;;;;;;2.80;1.30;;;6.00;55.40;;;;;;5006255;28;20033;-74
2022/04/17 00:09:14;;;;;;;1.55;1.10;;;5.90;55.50;;;;;;5030884;28;20098;-75
2022/04/17 00:11:41;;;;;;;2.65;1.20;;;5.90;55.60;;;;;;5064792;28;20082;-75
2022/04/17 00:14:10;;;;;;;2.95;1.63;;;5.90;55.60;;;;;;5032999;28;20029;-75
2022/04/17 00:16:36;;;;;;;2.78;1.30;;;5.90;55.60;;;;;;5043303;28;20048;-75
2022/04/17 00:19:01;;;;;;;3.78;1.30;;;5.80;55.70;;;;;;5060916;28;20688;-74
2022/04/17 00:21:27;;;;;;;2.63;1.13;;;5.80;55.80;;;;;;5013975;28;20033;-74
2022/04/17 00:23:52;;;;;;;1.77;1.20;;;5.70;55.90;;;;;;5038051;28;20030;-76
2022/04/17 00:26:19;;;;;;;1.20;1.10;;;5.70;56.10;;;;;;5018503;28;20044;-74
2022/04/17 00:28:44;;;;;;;4.45;1.33;;;5.60;56.10;;;;;;5055120;28;20036;-74
2022/04/17 00:31:10;;;;;;;5.20;1.60;;;5.60;56.30;;;;;;5028587;28;20075;-74
2022/04/17 00:33:35;;;;;;;1.80;1.25;;;5.60;56.40;;;;;;5033266;28;20075;-74
2022/04/17 00:36:01;;;;;;;2.40;1.58;;;5.60;56.50;;;;;;5064597;28;20108;-74
2022/04/17 00:38:27;;;;;;;1.58;1.45;;;5.60;56.60;;;;;;5033593;28;20055;-75
2022/04/17 00:40:54;;;;;;;1.77;1.40;;;5.60;56.80;;;;;;5052106;28;20036;-74
2022/04/17 00:43:27;;;;;;;1.88;1.40;;;5.50;56.70;;;;;;5046852;28;20118;-74
2022/04/17 00:45:55;;;;;;;2.50;1.40;;;5.50;56.80;;;;;;5044898;28;20041;-74
2022/04/17 00:48:24;;;;;;;2.72;1.42;;;5.50;56.80;;;;;;5031551;28;20047;-74
2022/04/17 00:50:51;;;;;;;1.55;1.17;;;5.40;56.80;;;;;;5003244;28;20033;-74
2022/04/17 00:53:17;;;;;;;4.85;1.30;;;5.40;56.90;;;;;;5026652;28;20037;-74
2022/04/17 00:55:43;;;;;;;1.48;1.05;;;5.30;57.10;;;;;;5036221;28;20037;-73
2022/04/17 00:58:09;;;;;;;1.55;1.23;;;5.40;58.00;;;;;;5041537;28;20048;-74
2022/04/17 01:00:34;;;;;;;1.90;1.17;;;5.40;57.40;;;;;;5010359;28;20056;-74
2022/04/17 01:03:00;;;;;;;2.47;1.23;;;5.40;57.50;;;;;;5038466;28;20079;-74
2022/04/17 01:05:26;;;;;;;2.30;1.40;;;5.40;57.50;;;;;;5045733;28;20048;-74
2022/04/17 01:07:52;;;;;;;2.25;1.40;;;5.40;57.60;;;;;;5017620;28;20032;-74
2022/04/17 01:10:18;;;;;;;2.88;1.27;;;5.40;57.50;;;;;;5018023;28;20112;-75
2022/04/17 01:12:44;;;;;;;2.97;1.42;;;5.30;57.60;;;;;;5061136;28;20381;-76
2022/04/17 01:15:11;;;;;;;1.58;1.40;;;5.30;57.60;;;;;;5040235;28;20037;-75
2022/04/17 01:17:36;;;;;;;2.10;1.13;;;5.20;57.70;;;;;;5017974;28;20040;-74
2022/04/17 01:20:02;;;;;;;1.83;1.50;;;5.20;57.90;;;;;;5035122;28;20051;-75
2022/04/17 01:22:28;;;;;;;1.38;1.20;;;5.20;58.00;;;;;;5042533;28;20424;-74
2022/04/17 01:27:38;;;;;;;1.70;1.13;;;5.10;58.10;;;;;;5046472;28;20117;-75
2022/04/17 01:30:03;;;;;;;3.65;1.30;;;5.10;58.00;;;;;;5021619;28;20608;-74
2022/04/17 01:32:29;;;;;;;1.55;1.00;;;5.00;58.20;;;;;;5027773;28;20123;-75
2022/04/17 01:34:54;;;;;;;6.78;1.60;;;5.00;58.40;;;;;;5044116;28;20089;-74
2022/04/17 01:37:20;;;;;;;1.65;1.30;;;5.00;58.50;;;;;;5040244;28;20529;-75
2022/04/17 01:39:46;;;;;;;1.50;1.30;;;4.90;58.50;;;;;;5022304;28;20048;-75
2022/04/17 01:42:12;;;;;;;3.88;1.40;;;4.90;58.60;;;;;;5030757;28;20037;-75
2022/04/17 01:44:38;;;;;;;1.63;1.00;;;4.90;58.60;;;;;;5023199;28;20043;-75
2022/04/17 01:47:04;;;;;;;2.42;1.40;;;4.90;58.70;;;;;;5019346;28;20028;-74
2022/04/17 01:49:29;;;;;;;3.15;1.27;;;4.80;58.70;;;;;;5015926;28;20619;-74
2022/04/17 01:51:55;;;;;;;2.20;1.40;;;4.80;58.80;;;;;;5028034;28;20033;-74
2022/04/17 01:54:25;;;;;;;2.22;1.40;;;4.70;58.80;;;;;;5012794;28;20089;-74
2022/04/17 01:56:50;;;;;;;2.33;1.10;;;4.60;58.90;;;;;;5021355;28;20115;-74
2022/04/17 01:59:17;;;;;;;1.67;1.38;;;4.60;59.10;;;;;;5053276;28;20532;-75
2022/04/17 02:01:42;;;;;;;2.08;1.33;;;4.50;59.20;;;;;;5053836;28;20041;-75
2022/04/17 02:04:08;;;;;;;2.42;1.20;;;4.60;59.30;;;;;;5050401;28;20040;-75
2022/04/17 02:06:34;;;;;;;2.20;1.30;;;4.60;59.40;;;;;;5013059;28;20036;-74
2022/04/17 02:09:00;;;;;;;2.47;1.50;;;4.60;59.50;;;;;;5045390;28;20041;-75
2022/04/17 02:11:26;;;;;;;2.10;1.70;;;4.60;59.60;;;;;;5041462;28;20079;-75
2022/04/17 02:13:52;;;;;;;2.22;1.35;;;4.60;59.60;;;;;;5056256;28;20509;-75
2022/04/17 02:16:18;;;;;;;1.90;1.23;;;4.60;59.70;;;;;;5041171;28;20068;-75
2022/04/17 02:18:47;;;;;;;1.30;1.02;;;4.60;59.70;;;;;;5030256;28;20056;-75
2022/04/17 02:21:13;;;;;;;1.88;1.40;;;4.60;59.80;;;;;;5009302;28;20033;-75
2022/04/17 02:23:42;;;;;;;1.88;1.20;;;4.60;59.90;;;;;;5004962;28;20111;-75
2022/04/17 02:26:08;;;;;;;3.28;1.30;;;4.60;60.00;;;;;;5041795;28;20501;-75
2022/04/17 02:28:35;;;;;;;1.23;1.10;;;4.50;59.90;;;;;;5008777;28;20094;-74
2022/04/17 02:31:03;;;;;;;4.10;1.20;;;4.50;60.00;;;;;;5061680;28;20041;-74
2022/04/17 02:33:29;;;;;;;1.90;1.30;;;4.40;60.00;;;;;;5012690;28;20052;-74
2022/04/17 02:35:55;;;;;;;2.58;1.20;;;4.40;60.00;;;;;;5041941;28;20128;-74
2022/04/17 02:38:20;;;;;;;2.05;1.25;;;4.40;60.20;;;;;;5063799;28;20766;-75
2022/04/17 02:40:46;;;;;;;3.00;1.65;;;4.30;60.20;;;;;;5060618;28;20039;-75
2022/04/17 02:43:12;;;;;;;3.92;1.45;;;4.30;60.40;;;;;;5028833;28;20045;-74
2022/04/17 02:45:37;;;;;;;1.42;1.13;;;4.30;60.50;;;;;;5035715;28;20037;-74
2022/04/17 02:48:03;;;;;;;2.28;1.40;;;4.20;60.40;;;;;;5035678;28;20029;-75
2022/04/17 02:50:29;;;;;;;2.83;1.83;;;4.20;60.70;;;;;;5062396;28;20033;-75
2022/04/17 02:52:55;;;;;;;2.30;1.50;;;4.20;60.80;;;;;;5060692;28;20122;-74
2022/04/17 02:55:21;;;;;;;3.53;1.52;;;4.20;60.80;;;;;;5046394;28;20044;-75
2022/04/17 02:57:46;;;;;;;2.20;1.48;;;4.10;60.70;;;;;;5060380;28;20037;-75
2022/04/17 03:00:12;;;;;;;3.40;2.13;;;4.10;60.90;;;;;;5041150;28;20233;-74
2022/04/17 03:05:39;;;;;;;2.05;1.42;;;4.00;60.90;;;;;;5047020;28;20056;-75
2022/04/17 03:08:09;;;;;;;2.53;1.38;;;3.90;61.10;;;;;;5056475;28;20070;-74
2022/04/17 03:10:36;;;;;;;1.63;1.38;;;3.90;61.40;;;;;;5021322;28;20560;-74
2022/04/17 03:13:03;;;;;;;1.70;1.27;;;3.90;61.40;;;;;;5051342;28;20595;-75
2022/04/17 03:15:28;;;;;;;2.33;1.35;;;3.90;61.50;;;;;;5044632;28;20551;-74
2022/04/17 03:17:54;;;;;;;1.90;1.45;;;3.90;61.60;;;;;;5044803;28;20033;-73
2022/04/17 03:20:19;;;;;;;1.98;1.45;;;3.90;61.60;;;;;;5064656;28;20272;-75
2022/04/17 03:22:45;;;;;;;3.70;1.40;;;3.90;61.70;;;;;;5047467;28;20059;-75
2022/04/17 03:25:11;;;;;;;4.47;1.33;;;3.90;61.70;;;;;;5025613;28;20053;-74
2022/04/17 03:27:36;;;;;;;1.65;1.15;;;3.90;61.80;;;;;;5032262;28;20068;-75
2022/04/17 03:30:03;;;;;;;2.20;1.38;;;3.90;61.90;;;;;;5042248;28;20047;-74
2022/04/17 03:32:28;;;;;;;1.42;1.30;;;3.80;62.80;;;;;;5029707;28;20163;-74
2022/04/17 03:34:54;;;;;;;2.05;1.33;;;3.80;62.10;;;;;;5025701;28;20140;-74
2022/04/17 03:37:20;;;;;;;3.60;1.50;;;3.70;62.00;;;;;;5036864;28;20087;-74
2022/04/17 03:39:46;;;;;;;3.53;1.40;;;3.70;62.30;;;;;;5034108;28;20646;-75
2022/04/17 03:42:12;;;;;;;3.85;1.88;;;3.70;62.30;;;;;;5033244;28;20067;-75
2022/04/17 03:44:38;;;;;;;1.88;1.70;;;3.70;62.40;;;;;;5022528;28;20116;-74
2022/04/17 03:47:05;;;;;;;1.83;1.40;;;3.60;62.30;;;;;;5027916;28;20031;-75
2022/04/17 03:49:31;;;;;;;1.25;1.15;;;3.60;62.50;;;;;;5045403;28;20040;-74
2022/04/17 03:51:57;;;;;;;1.50;1.40;;;3.60;62.70;;;;;;5019925;28;20091;-74
2022/04/17 03:54:22;;;;;;;2.50;1.40;;;3.60;62.80;;;;;;5029283;28;20029;-75
2022/04/17 03:56:48;;;;;;;2.63;1.52;;;3.60;62.80;;;;;;5045486;28;20036;-74
2022/04/17 03:59:14;;;;;;;2.13;1.30;;;3.60;62.80;;;;;;5031908;28;20058;-74
2022/04/17 04:01:40;;;;;;;2.60;1.58;;;3.60;62.70;;;;;;5029459;28;20111;-75
2022/04/17 04:04:08;;;;;;;2.15;1.50;;;3.50;62.80;;;;;;5043482;28;20042;-75
2022/04/17 04:06:34;;;;;;;2.58;1.50;;;3.40;62.80;;;;;;5023943;28;20068;-75
2022/04/17 04:08:59;;;;;;;1.60;1.42;;;3.30;63.00;;;;;;5030032;28;20057;-76
2022/04/17 04:11:25;;;;;;;3.33;1.60;;;3.30;63.10;;;;;;5048400;28;20570;-75
2022/04/17 04:13:50;;;;;;;3.65;1.75;;;3.30;63.30;;;;;;5032402;28;20575;-75
2022/04/17 04:16:16;;;;;;;2.13;1.73;;;3.20;63.40;;;;;;5040096;28;20056;-75
2022/04/17 04:18:41;;;;;;;2.35;1.63;;;3.30;63.50;;;;;;5043346;28;20652;-74
2022/04/17 04:21:07;;;;;;;3.13;1.63;;;3.30;63.60;;;;;;5017056;28;20048;-74
2022/04/17 04:23:33;;;;;;;4.10;1.98;;;3.30;63.60;;;;;;5031213;28;20090;-74
2022/04/17 04:25:59;;;;;;;2.40;1.42;;;3.30;63.70;;;;;;5052759;28;20036;-75
2022/04/17 04:28:35;;;;;;;1.65;1.40;;;3.30;63.80;;;;;;5033543;28;20040;-74
2022/04/17 04:31:10;;;;;;;1.30;1.20;;;3.30;63.70;;;;;;5018553;28;20043;-75
2022/04/17 04:33:37;;;;;;;2.50;1.52;;;3.30;63.70;;;;;;5007390;28;20114;-75
2022/04/17 04:36:04;;;;;;;2.08;1.50;;;3.30;64.50;;;;;;5024709;28;20117;-75
2022/04/17 04:38:30;;;;;;;4.32;1.60;;;3.20;63.80;;;;;;5014784;28;20033;-74
2022/04/17 04:40:55;;;;;;;1.60;1.50;;;3.20;63.80;;;;;;5011882;28;20053;-74
2022/04/17 04:43:21;;;;;;;1.70;1.35;;;3.20;63.90;;;;;;5028967;28;20033;-74
2022/04/17 04:51:15;;;;;;;2.83;1.67;;;3.10;64.00;;;;;;5035529;28;20048;-74
2022/04/17 04:53:41;;;;;;;1.70;1.55;;;3.00;64.10;;;;;;5027045;28;20033;-74
2022/04/17 04:56:06;;;;;;;2.83;1.65;;;3.00;64.20;;;;;;5029090;28;20041;-73
2022/04/17 04:58:32;;;;;;;2.78;1.40;;;3.00;64.20;;;;;;5043955;28;20128;-74
2022/04/17 05:00:58;;;;;;;2.38;1.40;;;3.00;64.30;;;;;;5023878;28;20066;-74
2022/04/17 05:03:24;;;;;;;3.47;1.58;;;3.00;64.40;;;;;;5014355;28;20272;-74
2022/04/17 05:05:49;;;;;;;2.42;1.40;;;3.00;64.50;;;;;;5012577;28;20030;-75
2022/04/17 05:08:15;;;;;;;3.33;1.80;;;3.10;64.60;;;;;;5027828;28;20046;-74
2022/04/17 05:10:40;;;;;;;3.60;1.70;;;3.10;64.80;;;;;;5003052;28;20046;-74
2022/04/17 05:13:06;;;;;;;1.67;1.52;;;3.10;64.80;;;;;;5045272;28;20029;-74
2022/04/17 05:15:31;;;;;;;3.15;1.77;;;3.20;64.90;;;;;;5027319;28;20120;-74
2022/04/17 05:17:57;;;;;;;1.90;1.58;;;3.20;64.90;;;;;;5029536;28;20029;-74
2022/04/17 05:20:22;;;;;;;2.83;2.08;;;3.20;65.00;;;;;;5016827;28;20124;-74
2022/04/17 05:22:56;;;;;;;3.50;2.10;;;3.20;64.90;;;;;;5020668;28;20041;-74
2022/04/17 05:25:21;;;;;;;2.10;1.67;;;3.30;65.10;;;;;;5023873;28;20048;-74
2022/04/17 05:27:47;;;;;;;4.93;2.50;;;3.30;65.00;;;;;;5027048;28;20041;-74
2022/04/17 05:30:12;;;;;;;3.13;1.80;;;3.30;65.00;;;;;;5028961;28;20029;-74
2022/04/17 05:32:38;;;;;;;1.77;1.63;;;3.40;65.10;;;;;;5012492;28;20041;-75
2022/04/17 05:35:04;;;;;;;1.67;1.58;;;3.40;65.10;;;;;;5030494;28;20045;-74
2022/04/17 05:37:30;;;;;;;1.83;1.55;;;3.50;65.20;;;;;;5043515;28;20056;-76
2022/04/17 05:39:55;;;;;;;3.92;2.03;;;3.50;65.20;;;;;;5010074;28;20037;-74
2022/04/17 05:42:21;;;;;;;4.35;1.88;;;3.60;65.20;;;;;;5039210;28;20384;-74
2022/04/17 05:44:47;;;;;;;3.50;2.13;;;3.60;65.20;;;;;;5051668;28;20511;-76
2022/04/17 05:47:13;;;;;;;3.17;1.70;;;3.60;65.20;;;;;;5044572;28;20055;-76
2022/04/17 05:49:39;;;;;;;2.60;1.77;;;3.70;66.00;;;;;;5010248;28;20675;-75
2022/04/17 05:52:05;;;;;;;1.98;1.60;;;3.70;65.20;;;;;;5044586;28;20112;-75
2022/04/17 05:54:30;;;;;;;2.47;1.80;;;3.80;65.20;;;;;;5050255;28;20033;-74
2022/04/17 05:56:56;;;;;;;5.22;2.00;;;3.80;65.20;;;;;;5045622;28;20070;-76
2022/04/17 05:59:22;;;;;;;1.92;1.55;;;3.90;65.10;;;;;;5028473;28;20067;-74
2022/04/17 06:01:47;;;;;;;1.98;1.50;;;4.00;65.10;;;;;;5027098;28;20028;-73
2022/04/17 06:04:13;;;;;;;2.28;1.90;;;4.00;65.00;;;;;;5029555;28;20075;-74
2022/04/17 06:06:38;;;;;;;3.85;2.40;;;4.10;65.00;;;;;;5022161;28;20173;-73
2022/04/17 06:09:04;;;;;;;3.55;2.83;;;4.20;65.00;;;;;;5053358;28;20041;-73
2022/04/17 06:11:30;;;;;;;5.05;3.42;;;4.20;65.00;;;;;;5047051;28;20037;-73
2022/04/17 06:13:55;;;;;;;5.60;2.72;;;4.30;65.00;;;;;;5027623;28;20037;-73
2022/04/17 06:16:21;;;;;;;4.72;3.80;;;4.40;65.00;;;;;;5033593;28;20138;-73
2022/04/17 06:18:46;;;;;;;3.78;2.88;;;4.50;65.00;;;;;;5035527;28;20041;-73
2022/04/17 06:21:12;;;;;;;4.13;2.80;;;4.60;65.00;;;;;;5043232;28;20166;-73
2022/04/17 06:23:38;;;;;;;5.20;2.22;;;4.70;64.80;;;;;;5029225;28;20051;-73
2022/04/17 06:26:04;;;;;;;3.78;2.22;;;4.80;64.80;;;;;;5029153;28;20596;-73
2022/04/17 06:28:30;;;;;;;3.75;2.38;;;4.90;64.70;;;;;;5022588;28;20041;-73
2022/04/17 06:30:55;;;;;;;4.25;2.33;;;5.00;64.60;;;;;;5035983;28;20049;-73
2022/04/17 06:33:21;;;;;;;4.68;2.25;;;5.10;64.40;;;;;;5021025;28;20060;-73
2022/04/17 06:35:47;;;;;;;3.20;2.40;;;5.30;64.40;;;;;;5027877;28;20044;-75
2022/04/17 06:38:13;;;;;;;4.25;2.05;;;5.40;65.10;;;;;;5029470;28;20589;-73
2022/04/17 06:40:38;;;;;;;4.03;2.30;;;5.50;64.20;;;;;;5032475;28;20025;-73
2022/04/17 06:43:07;;;;;;;3.03;2.10;;;5.70;64.00;;;;;;5030632;28;20044;-73
2022/04/17 06:45:34;;;;;;;4.40;2.00;;;5.80;63.90;;;;;;5036988;28;20033;-73
2022/04/17 06:48:15;;;;;;;3.78;2.35;;;5.90;63.70;;;;;;5028277;28;20540;-73
2022/04/17 06:50:41;;;;;;;;;;;6.10;63.80;;;;;;5046893;28;20424;-73
2022/04/17 06:53:07;;;;;;;3.00;2.47;;;6.20;63.30;;;;;;5056218;28;19913;-73
2022/04/17 06:55:33;;;;;;;3.97;2.40;;;6.30;63.10;;;;;;5044637;28;20037;-73
2022/04/17 06:57:58;;;;;;;3.38;2.13;;;6.50;63.10;;;;;;5059018;28;20045;-73
2022/04/17 07:00:24;;;;;;;11.05;2.55;;;6.60;63.00;;;;;;5032905;28;20110;-73
2022/04/17 07:02:50;;;;;;;3.70;1.85;;;6.80;62.90;;;;;;5017689;28;20049;-72
2022/04/17 07:05:16;;;;;;;2.53;1.85;;;7.00;62.80;;;;;;5044994;28;20112;-73
2022/04/17 07:07:41;;;;;;;2.70;1.95;;;7.10;62.50;;;;;;5011718;28;20064;-73
2022/04/17 07:10:08;;;;;;;3.67;2.20;;;7.30;62.30;;;;;;5011512;28;20044;-73
2022/04/17 07:12:34;;;;;;;2.45;2.22;;;7.40;62.10;;;;;;5045644;28;20033;-73
2022/04/17 07:15:00;;;;;;;2.42;2.22;;;7.60;62.00;;;;;;5053641;28;20865;-73
2022/04/17 07:17:35;;;;;;;2.33;1.88;;;7.70;61.70;;;;;;5062625;28;20041;-74
2022/04/17 07:20:02;;;;;;;3.33;2.00;;;7.90;61.50;;;;;;5049577;28;20031;-74
2022/04/17 07:22:28;;;;;;;2.00;1.80;;;8.00;61.40;;;;;;5023920;28;20032;-73
2022/04/17 07:24:54;;;;;;;2.20;1.90;;;8.20;61.20;;;;;;5042574;28;20715;-75
2022/04/17 07:27:20;;;;;;;3.20;1.77;;;8.40;61.00;;;;;;5061164;28;20187;-74
2022/04/17 07:29:46;;;;;;;3.17;2.00;;;8.60;60.80;;;;;;5023648;28;20040;-71
2022/04/17 07:32:12;;;;;;;1.95;1.77;;;8.80;60.60;;;;;;5010499;28;20033;-72
2022/04/17 07:34:37;;;;;;;4.57;2.08;;;8.90;60.30;;;;;;5041457;28;20129;-71
2022/04/17 07:37:03;;;;;;;4.20;1.88;;;9.10;60.10;;;;;;5046363;28;20238;-71
2022/04/17 07:39:29;;;;;;;4.75;2.00;;;9.30;59.90;;;;;;5046010;28;20592;-71
2022/04/17 07:41:54;;;;;;;2.55;1.67;;;9.40;59.50;;;;;;5057332;28;20033;-71
2022/04/17 07:44:20;;;;;;;2.95;1.80;;;9.60;59.30;;;;;;5023741;28;20029;-71
2022/04/17 07:46:46;;;;;;;1.90;1.60;;;9.70;59.00;;;;;;5027237;28;20025;-71
2022/04/17 07:49:11;;;;;;;3.55;1.67;;;9.90;58.80;;;;;;5027352;28;20033;-72
2022/04/17 07:51:37;;;;;;;4.10;1.90;;;10.10;58.70;;;;;;5049126;28;20565;-74
2022/04/17 07:54:02;;;;;;;2.75;1.75;;;10.30;58.60;;;;;;5027222;28;20029;-73
2022/04/17 07:56:28;;;;;;;2.08;1.45;;;10.50;58.30;;;;;;5043789;28;20508;-73
2022/04/17 07:58:54;;;;;;;3.60;1.33;;;10.70;58.10;;;;;;5041373;28;20517;-73
2022/04/17 08:01:20;;;;;;;2.95;1.95;;;10.90;58.00;;;;;;5003245;28;20045;-73
2022/04/17 08:03:46;;;;;;;3.42;1.48;;;11.10;57.80;;;;;;5038276;28;20068;-75
2022/04/17 08:06:15;;;;;;;3.80;1.70;;;11.30;57.60;;;;;;5033902;28;20033;-73
2022/04/17 08:08:40;;;;;;;3.30;1.70;;;11.60;57.30;;;;;;5042314;28;20556;-73
2022/04/17 08:11:06;;;;;;;1.70;1.40;;;11.80;57.00;;;;;;5023019;28;20037;-73
2022/04/17 08:13:32;;;;;;;2.50;1.60;;;12.00;56.60;;;;;;5017014;28;22249;-73
2022/04/17 08:15:59;;;;;;;2.53;1.75;;;12.20;56.20;;;;;;5032488;28;20610;-73
2022/04/17 08:18:24;;;;;;;2.28;1.52;;;12.40;56.00;;;;;;5034812;28;20053;-73
2022/04/17 08:20:50;;;;;;;2.17;1.55;;;12.60;55.70;;;;;;5036849;28;20110;-73
2022/04/17 08:23:16;;;;;;;3.63;1.60;;;12.80;55.50;;;;;;5039253;28;20033;-75
2022/04/17 08:25:42;;;;;;;3.13;1.77;;;13.00;55.10;;;;;;5009545;28;20040;-73
2022/04/17 08:28:07;;;;;;;2.67;1.70;;;13.10;54.50;;;;;;5018186;28;20033;-74
2022/04/17 08:30:34;;;;;;;3.25;1.60;;;13.30;54.30;;;;;;5042575;28;20040;-75
2022/04/17 08:33:01;;;;;;;1.55;1.17;;;13.50;54.00;;;;;;5025076;28;20091;-73
2022/04/17 08:35:27;;;;;;;1.25;1.10;;;13.70;53.50;;;;;;5020769;28;20441;-74
2022/04/17 08:37:52;;;;;;;3.67;1.35;;;14.00;53.20;;;;;;5018954;28;20241;-73
2022/04/17 08:40:18;;;;;;;3.70;1.15;;;14.20;52.90;;;;;;5028096;28;20037;-74
2022/04/17 08:42:46;;;;;;;3.10;1.27;;;14.40;52.50;;;;;;5046688;28;20054;-74
2022/04/17 08:45:12;;;;;;;1.20;1.00;;;14.70;52.20;;;;;;5013494;28;20037;-74
2022/04/17 08:47:39;;;;;;;2.35;1.42;;;15.00;51.80;;;;;;5027817;28;20036;-74
2022/04/17 08:50:10;;;;;;;1.42;1.05;;;15.30;51.40;;;;;;5025293;28;20041;-74
2022/04/17 08:52:37;;;;;;;2.38;1.33;;;15.50;50.60;;;;;;5033463;28;20178;-74
2022/04/17 08:55:02;;;;;;;3.03;1.70;;;15.70;50.30;;;;;;5024974;28;20037;-74
2022/04/17 08:57:28;;;;;;;3.80;0.98;;;15.80;49.80;;;;;;5046207;28;20129;-74
2022/04/17 08:59:53;;;;;;;2.45;1.05;;;16.00;49.40;;;;;;5007955;28;20029;-73
2022/04/17 09:02:19;;;;;;;1.63;1.02;;;16.20;49.10;;;;;;5044732;28;20037;-73
2022/04/17 09:04:45;;;;;;;2.05;1.10;;;16.40;48.60;;;;;;5047197;28;20029;-73
2022/04/17 09:07:11;;;;;;;2.75;1.27;;;16.60;48.20;;;;;;5050399;28;20043;-73
2022/04/17 09:09:50;;;;;;;3.17;1.38;;;16.80;47.80;;;;;;5049518;28;20051;-74
2022/04/17 09:12:20;;;;;;;1.85;1.30;;;17.10;47.00;;;;;;5047322;28;20040;-74
2022/04/17 09:14:46;;;;;;;2.33;1.23;;;17.30;46.60;;;;;;5012345;28;20101;-74
2022/04/17 09:17:11;;;;;;;1.77;1.02;;;17.40;46.30;;;;;;5014859;28;20033;-75
2022/04/17 09:19:37;;;;;;;2.25;0.77;;;17.60;45.90;;;;;;5044365;28;20040;-75
2022/04/17 09:22:03;;;;;;;1.17;1.02;;;17.80;45.60;;;;;;5031800;28;20063;-74
2022/04/17 09:24:28;;;;;;;2.47;1.55;;;18.00;45.30;;;;;;5021268;28;20067;-74
2022/04/17 09:26:54;;;;;;;2.38;1.27;;;18.20;45.00;;;;;;5006183;28;20029;-73
2022/04/17 09:29:27;;;;;;;1.85;1.33;;;18.40;44.70;;;;;;5050705;28;20033;-75
2022/04/17 09:32:11;;;;;;;1.95;1.00;;;18.60;44.10;;;;;;5041054;28;20053;-75
2022/04/17 09:34:52;;;;;;;2.95;1.20;;;18.70;42.90;;;;;;5028773;28;20036;-74
2022/04/17 09:37:23;;;;;;;4.10;1.10;;;18.90;42.50;;;;;;5019809;28;20037;-75
2022/04/17 09:39:49;;;;;;;1.55;1.02;;;18.90;42.90;;;;;;5022010;28;20099;-75
2022/04/17 09:42:27;;;;;;;4.60;1.20;;;19.00;42.90;;;;;;5009913;28;20056;-74
2022/04/17 09:44:57;;;;;;;2.55;1.38;;;19.10;41.80;;;;;;5009758;28;20045;-74
2022/04/17 09:47:24;;;;;;;2.10;0.90;;;19.30;42.20;;;;;;5046382;28;20029;-74
2022/04/17 09:49:59;;;;;;;2.28;1.10;;;19.50;42.00;;;;;;5005057;28;20138;-75
2022/04/17 09:52:39;;;;;;;2.33;0.88;;;19.60;41.60;;;;;;5020994;28;20058;-74
2022/04/17 09:55:04;;;;;;;1.15;0.98;;;19.80;41.20;;;;;;5036572;28;20037;-73
2022/04/17 09:57:33;;;;;;;9.25;1.27;;;20.00;40.80;;;;;;5028163;28;20128;-73
2022/04/17 10:00:10;;;;;;;3.40;1.13;;;20.10;40.50;;;;;;5059604;28;20032;-73
2022/04/17 10:02:37;;;;;;;2.15;1.00;;;20.10;39.10;;;;;;4994647;28;21063;-74
2022/04/17 10:05:04;;;;;;;1.10;1.00;;;20.20;39.90;;;;;;5025649;28;20029;-73
2022/04/17 10:07:29;;;;;;;2.20;1.08;;;20.20;39.40;;;;;;5040639;28;20021;-73
2022/04/17 10:10:00;;;;;;;0.85;0.75;;;20.30;39.40;;;;;;5025938;28;20036;-74
2022/04/17 10:12:26;;;;;;;1.98;1.10;;;20.40;39.00;;;;;;5032485;28;20029;-73
2022/04/17 10:14:52;;;;;;;2.25;1.10;;;20.60;38.80;;;;;;5035904;28;20120;-73
2022/04/17 10:17:20;;;;;;;2.78;1.30;;;20.70;38.40;;;;;;5041403;28;20069;-74
2022/04/17 10:19:45;;;;;;;0.93;0.80;;;20.70;37.90;;;;;;5041975;28;20032;-73
2022/04/17 10:22:11;;;;;;;1.58;1.10;;;20.70;37.80;;;;;;5044119;28;20048;-73
2022/04/17 10:24:37;;;;;;;1.65;0.85;;;20.80;37.70;;;;;;5033931;28;21683;-73
2022/04/17 10:27:03;;;;;;;3.75;1.35;;;20.80;37.40;;;;;;5011431;28;20833;-73
2022/04/17 10:29:41;;;;;;;9.63;1.70;;;20.90;37.20;;;;;;5027886;28;20175;-73
2022/04/17 10:32:18;;;;;;;6.03;1.85;;;21.00;36.80;;;;;;5012589;28;20345;-76
2022/04/17 10:34:54;;;;;;;4.72;1.10;;;21.20;35.80;;;;;;5033077;28;20068;-73
2022/04/17 10:37:56;;;;;;;2.17;1.10;;;21.20;36.20;;;;;;5046531;28;20041;-73
2022/04/17 10:40:22;;;;;;;3.03;0.98;;;21.30;35.20;;;;;;5012513;28;20029;-74
2022/04/17 10:42:55;;;;;;;1.20;0.75;;;21.50;36.20;;;;;;5030099;28;20061;-76
2022/04/17 10:45:26;;;;;;;3.40;0.90;;;21.60;35.50;;;;;;5025894;28;20056;-73
2022/04/17 10:48:11;;;;;;;1.23;0.77;;;21.70;35.50;;;;;;5055522;28;20639;-74
2022/04/17 10:50:48;;;;;;;1.00;0.80;;;21.80;33.60;;;;;;5016320;28;20048;-73
2022/04/17 10:53:27;;;;;;;2.70;0.80;;;21.90;33.70;;;;;;5047542;28;20037;-74
2022/04/17 10:56:05;;;;;;;1.92;0.82;;;22.00;33.50;;;;;;5025654;28;20052;-73
2022/04/17 10:58:37;;;;;;;1.92;0.80;;;22.10;33.20;;;;;;5061217;28;20040;-73
2022/04/17 11:01:04;;;;;;;2.33;1.10;;;22.30;33.40;;;;;;5008074;28;20555;-73
2022/04/17 11:03:33;;;;;;;1.02;0.85;;;22.30;33.20;;;;;;5026024;28;20476;-74
2022/04/17 11:06:09;;;;;;;1.00;0.70;;;22.30;33.00;;;;;;5013967;28;20037;-74
2022/04/17 11:08:46;;;;;;;1.08;0.82;;;22.40;33.00;;;;;;5014156;28;20071;-75
2022/04/17 11:11:11;;;;;;;1.08;0.90;;;22.50;31.60;;;;;;5045283;28;20099;-73
2022/04/17 11:13:37;;;;;;;2.70;1.90;;;22.70;32.60;;;;;;5034072;28;20475;-73
2022/04/17 11:16:06;;;;;;;1.55;1.33;;;22.80;32.40;;;;;;5061318;28;20548;-74
2022/04/17 11:18:32;;;;;;;1.85;1.00;;;23.00;32.10;;;;;;4992118;28;20046;-73
2022/04/17 11:20:58;;;;;;;1.90;1.17;;;23.10;31.80;;;;;;5050122;28;20467;-73
2022/04/17 11:23:48;;;;;;;1.33;1.00;;;23.10;32.20;;;;;;5057571;28;20045;-74
2022/04/17 11:26:13;;;;;;;1.77;0.90;;;23.30;30.00;;;;;;5027540;28;20697;-74
2022/04/17 11:28:39;;;;;;;1.35;0.90;;;23.40;31.30;;;;;;5032739;28;20045;-73
2022/04/17 11:31:05;;;;;;;2.28;0.80;;;23.50;31.00;;;;;;5046868;28;20064;-74
2022/04/17 11:33:30;;;;;;;1.40;0.98;;;23.60;30.80;;;;;;5059451;28;20041;-74
2022/04/17 11:35:57;;;;;;;1.63;0.90;;;23.70;30.50;;;;;;5012762;28;20041;-74
2022/04/17 11:38:22;;;;;;;1.63;0.85;;;23.80;30.30;;;;;;5038302;28;20135;-73
2022/04/17 11:40:48;;;;;;;4.05;1.00;;;23.80;30.00;;;;;;5006459;28;20535;-73
2022/04/17 11:43:16;;;;;;;1.40;0.80;;;23.90;30.00;;;;;;5035624;28;20587;-74
2022/04/17 11:45:42;;;;;;;2.90;0.90;;;23.90;29.80;;;;;;5011038;28;20038;-74
2022/04/17 11:48:09;;;;;;;3.70;0.95;;;24.00;29.60;;;;;;5030080;28;20098;-73
2022/04/17 11:50:35;;;;;;;1.83;0.95;;;24.00;29.50;;;;;;5037462;28;20136;-73
2022/04/17 11:53:05;;;;;;;1.35;0.80;;;24.10;29.40;;;;;;5022594;28;20032;-73
2022/04/17 11:55:32;;;;;;;1.52;0.82;;;24.20;29.20;;;;;;5059750;28;20056;-74
2022/04/17 11:57:59;;;;;;;1.17;0.88;;;24.30;28.90;;;;;;5025953;28;20049;-73
2022/04/17 12:00:25;;;;;;;1.27;0.90;;;24.30;28.90;;;;;;5037243;28;20036;-74
2022/04/17 12:02:57;;;;;;;1.45;1.00;;;24.20;28.70;;;;;;5032266;28;20037;-73
2022/04/17 12:05:23;;;;;;;2.50;0.82;;;24.20;28.40;;;;;;5033251;28;20041;-73
2022/04/17 12:07:59;;;;;;;3.67;0.98;;;24.30;28.70;;;;;;5019353;28;20124;-73
2022/04/17 12:10:24;;;;;;;1.63;1.08;;;24.40;28.40;;;;;;5030360;28;20047;-74
2022/04/17 12:12:50;;;;;;;1.88;1.20;;;24.40;28.70;;;;;;5063992;28;20037;-74
2022/04/17 12:15:15;;;;;;;2.55;1.27;;;24.50;28.70;;;;;;5018943;28;20037;-73
2022/04/17 12:17:41;;;;;;;1.63;1.13;;;24.50;28.50;;;;;;5066685;28;20124;-74
2022/04/17 12:20:12;;;;;;;1.20;0.80;;;24.50;28.40;;;;;;5012513;28;20033;-74
2022/04/17 12:22:38;;;;;;;2.45;1.05;;;24.60;28.40;;;;;;5035970;28;20037;-75
2022/04/17 12:25:04;;;;;;;2.92;1.15;;;24.70;28.60;;;;;;5038534;28;20617;-73
2022/04/17 12:27:30;;;;;;;1.00;0.90;;;24.90;28.60;;;;;;5020668;28;20531;-73
2022/04/17 12:29:57;;;;;;;2.20;0.80;;;25.00;28.20;;;;;;5015131;28;20063;-74
2022/04/17 12:32:23;;;;;;;1.17;0.80;;;25.10;27.90;;;;;;5026530;28;20063;-74
2022/04/17 12:35:02;;;;;;;0.95;0.70;;;25.20;27.90;;;;;;5056823;28;20545;-74
2022/04/17 12:37:29;;;;;;;2.95;1.00;;;25.30;27.10;;;;;;5033063;28;20053;-73
2022/04/17 12:40:20;;;;;;;0.90;0.80;;;25.40;27.70;;;;;;5042111;28;20123;-74
2022/04/17 12:42:46;;;;;;;1.00;0.80;;;25.50;27.20;;;;;;5057564;28;20058;-73
2022/04/17 12:45:25;;;;;;;1.90;0.98;;;25.60;27.80;;;;;;5031567;28;20035;-74
2022/04/17 12:48:06;;;;;;;1.85;0.90;;;25.70;27.30;;;;;;5053028;28;20071;-73
2022/04/17 12:50:32;;;;;;;1.60;1.10;;;25.90;27.30;;;;;;5012543;28;20100;-74
2022/04/17 12:52:58;;;;;;;7.45;1.17;;;26.00;27.70;;;;;;5031340;28;20037;-74
2022/04/17 12:55:31;;;;;;;4.05;1.05;;;25.90;27.50;;;;;;5027508;28;20059;-73
2022/04/17 12:57:57;;;;;;;2.70;0.80;;;25.90;27.20;;;;;;5022051;28;20123;-73
2022/04/17 13:00:24;;;;;;;1.27;0.80;;;26.00;27.50;;;;;;5005998;28;20124;-74
2022/04/17 13:02:55;;;;;;;1.05;0.70;;;26.00;27.30;;;;;;5009105;28;20037;-73
2022/04/17 13:05:21;;;;;;;1.48;0.90;;;26.10;27.20;;;;;;5037534;28;20033;-73